sensor_id;sensor_type;location;lat;lon;timestamp;pressure;altitude;pressure_sealevel;temperature;humidity
706;BME280;21234;48.690;9.016;2023-12-28T00:02:14;96216.72;;;5.35;55.83
706;BME280;21234;48.690;9.016;2023-12-28T00:04:43;96225.41;;;5.13;55.40
706;BME280;21234;48.690;9.016;2023-12-28T00:07:09;96219.78;;;5.14;57.72
706;BME280;21234;48.690;9.016;2023-12-28T00:09:38;96213.03;;;5.30;54.12
706;BME280;21234;48.690;9.016;2023-12-28T00:12:05;96211.03;;;5.50;53.05
706;BME280;21234;48.690;9.016;2023-12-28T00:14:33;96209.84;;;5.64;52.71
706;BME280;21234;48.690;9.016;2023-12-28T00:16:59;96200.28;;;5.68;52.65
706;BME280;21234;48.690;9.016;2023-12-28T00:19:27;96215.31;;;5.83;51.76
706;BME280;21234;48.690;9.016;2023-12-28T00:21:55;96208.16;;;5.88;51.73
706;BME280;21234;48.690;9.016;2023-12-28T00:24:22;96210.03;;;5.94;51.50
706;BME280;21234;48.690;9.016;2023-12-28T00:26:48;96200.88;;;5.95;51.73
706;BME280;21234;48.690;9.016;2023-12-28T00:29:15;96212.50;;;5.96;52.27
706;BME280;21234;48.690;9.016;2023-12-28T00:31:42;96210.84;;;5.95;51.89
706;BME280;21234;48.690;9.016;2023-12-28T00:34:08;96217.22;;;6.00;51.29
706;BME280;21234;48.690;9.016;2023-12-28T00:36:35;96210.19;;;5.99;51.33
706;BME280;21234;48.690;9.016;2023-12-28T00:39:03;96209.34;;;5.99;50.72
706;BME280;21234;48.690;9.016;2023-12-28T00:41:30;96217.66;;;5.97;51.33
706;BME280;21234;48.690;9.016;2023-12-28T00:43:57;96208.53;;;5.98;51.62
706;BME280;21234;48.690;9.016;2023-12-28T00:46:23;96206.00;;;6.03;50.89
706;BME280;21234;48.690;9.016;2023-12-28T00:48:50;96216.34;;;6.06;51.05
706;BME280;21234;48.690;9.016;2023-12-28T00:51:17;96207.88;;;6.03;50.87
706;BME280;21234;48.690;9.016;2023-12-28T00:53:44;96216.94;;;6.09;50.88
706;BME280;21234;48.690;9.016;2023-12-28T00:56:12;96228.34;;;6.11;50.54
706;BME280;21234;48.690;9.016;2023-12-28T00:58:39;96223.09;;;6.16;50.61
706;BME280;21234;48.690;9.016;2023-12-28T01:01:06;96222.50;;;6.14;50.72
706;BME280;21234;48.690;9.016;2023-12-28T01:03:32;96213.34;;;6.15;51.26
706;BME280;21234;48.690;9.016;2023-12-28T01:05:59;96208.25;;;6.06;51.14
706;BME280;21234;48.690;9.016;2023-12-28T01:08:26;96219.31;;;5.98;51.14
706;BME280;21234;48.690;9.016;2023-12-28T01:10:52;96219.09;;;6.18;50.30
706;BME280;21234;48.690;9.016;2023-12-28T01:13:20;96220.25;;;6.29;49.91
706;BME280;21234;48.690;9.016;2023-12-28T01:15:47;96212.97;;;6.29;50.56
706;BME280;21234;48.690;9.016;2023-12-28T01:18:14;96219.97;;;6.37;49.68
706;BME280;21234;48.690;9.016;2023-12-28T01:20:41;96227.22;;;6.36;49.87
706;BME280;21234;48.690;9.016;2023-12-28T01:23:07;96228.22;;;6.42;49.65
706;BME280;21234;48.690;9.016;2023-12-28T01:25:34;96223.03;;;6.40;50.08
706;BME280;21234;48.690;9.016;2023-12-28T01:28:01;96224.31;;;6.38;50.30
706;BME280;21234;48.690;9.016;2023-12-28T01:30:29;96229.09;;;6.36;50.04
706;BME280;21234;48.690;9.016;2023-12-28T01:32:56;96223.94;;;6.34;50.19
706;BME280;21234;48.690;9.016;2023-12-28T01:35:22;96234.34;;;6.31;50.12
706;BME280;21234;48.690;9.016;2023-12-28T01:37:49;96241.25;;;6.27;50.59
706;BME280;21234;48.690;9.016;2023-12-28T01:40:16;96249.06;;;6.17;51.64
706;BME280;21234;48.690;9.016;2023-12-28T01:42:44;96252.09;;;6.02;52.06
706;BME280;21234;48.690;9.016;2023-12-28T01:45:11;96253.69;;;5.85;52.96
706;BME280;21234;48.690;9.016;2023-12-28T01:47:39;96262.25;;;5.75;54.71
706;BME280;21234;48.690;9.016;2023-12-28T01:50:07;96258.19;;;5.66;55.83
706;BME280;21234;48.690;9.016;2023-12-28T01:52:34;96261.13;;;5.58;53.64
706;BME280;21234;48.690;9.016;2023-12-28T01:55:01;96255.97;;;5.56;54.72
706;BME280;21234;48.690;9.016;2023-12-28T01:57:28;96257.00;;;5.55;54.28
706;BME280;21234;48.690;9.016;2023-12-28T01:59:55;96265.50;;;5.59;53.89
706;BME280;21234;48.690;9.016;2023-12-28T02:02:24;96269.22;;;5.58;54.34
706;BME280;21234;48.690;9.016;2023-12-28T02:04:52;96282.53;;;5.53;54.63
706;BME280;21234;48.690;9.016;2023-12-28T02:07:20;96272.47;;;5.42;57.07
706;BME280;21234;48.690;9.016;2023-12-28T02:09:47;96279.59;;;5.29;58.28
706;BME280;21234;48.690;9.016;2023-12-28T02:12:14;96282.31;;;5.23;58.88
706;BME280;21234;48.690;9.016;2023-12-28T02:14:40;96280.88;;;5.20;57.98
706;BME280;21234;48.690;9.016;2023-12-28T02:17:13;96283.22;;;5.17;56.19
706;BME280;21234;48.690;9.016;2023-12-28T02:19:45;96281.28;;;5.24;55.95
706;BME280;21234;48.690;9.016;2023-12-28T02:22:15;96279.78;;;5.34;55.33
706;BME280;21234;48.690;9.016;2023-12-28T02:25:07;96279.69;;;5.48;54.31
706;BME280;21234;48.690;9.016;2023-12-28T02:27:36;96279.94;;;5.71;52.88
706;BME280;21234;48.690;9.016;2023-12-28T02:30:05;96273.97;;;5.87;52.40
706;BME280;21234;48.690;9.016;2023-12-28T02:32:42;96281.59;;;5.97;51.86
706;BME280;21234;48.690;9.016;2023-12-28T02:35:16;96284.38;;;6.15;51.11
706;BME280;21234;48.690;9.016;2023-12-28T02:37:44;96288.03;;;6.21;50.77
706;BME280;21234;48.690;9.016;2023-12-28T02:40:17;96272.38;;;6.29;50.76
706;BME280;21234;48.690;9.016;2023-12-28T02:42:44;96265.94;;;6.30;50.65
706;BME280;21234;48.690;9.016;2023-12-28T02:45:10;96268.19;;;6.33;49.90
706;BME280;21234;48.690;9.016;2023-12-28T02:47:37;96268.19;;;6.52;49.12
706;BME280;21234;48.690;9.016;2023-12-28T02:50:05;96265.34;;;6.65;48.93
706;BME280;21234;48.690;9.016;2023-12-28T02:52:32;96267.38;;;6.69;48.95
706;BME280;21234;48.690;9.016;2023-12-28T02:54:59;96266.03;;;6.79;48.82
706;BME280;21234;48.690;9.016;2023-12-28T02:57:27;96264.97;;;6.80;47.86
706;BME280;21234;48.690;9.016;2023-12-28T02:59:53;96269.44;;;6.86;48.23
706;BME280;21234;48.690;9.016;2023-12-28T03:02:22;96273.34;;;6.90;47.69
706;BME280;21234;48.690;9.016;2023-12-28T03:04:48;96267.13;;;6.89;48.34
706;BME280;21234;48.690;9.016;2023-12-28T03:07:15;96255.47;;;6.89;47.86
706;BME280;21234;48.690;9.016;2023-12-28T03:09:42;96262.75;;;7.06;46.95
706;BME280;21234;48.690;9.016;2023-12-28T03:12:08;96264.31;;;7.14;46.87
706;BME280;21234;48.690;9.016;2023-12-28T03:14:37;96268.19;;;7.18;46.94
706;BME280;21234;48.690;9.016;2023-12-28T03:17:03;96266.00;;;7.27;46.54
706;BME280;21234;48.690;9.016;2023-12-28T03:19:30;96262.47;;;7.26;46.51
706;BME280;21234;48.690;9.016;2023-12-28T03:21:57;96275.66;;;7.34;46.23
706;BME280;21234;48.690;9.016;2023-12-28T03:24:23;96277.56;;;7.34;46.54
706;BME280;21234;48.690;9.016;2023-12-28T03:26:50;96274.25;;;7.32;46.77
706;BME280;21234;48.690;9.016;2023-12-28T03:29:17;96282.13;;;7.33;46.50
706;BME280;21234;48.690;9.016;2023-12-28T03:31:45;96278.47;;;7.28;47.86
706;BME280;21234;48.690;9.016;2023-12-28T03:34:11;96273.94;;;7.10;47.98
706;BME280;21234;48.690;9.016;2023-12-28T03:36:38;96284.22;;;7.01;47.84
706;BME280;21234;48.690;9.016;2023-12-28T03:39:05;96286.84;;;6.90;48.74
706;BME280;21234;48.690;9.016;2023-12-28T03:41:32;96281.53;;;6.83;48.56
706;BME280;21234;48.690;9.016;2023-12-28T03:43:58;96279.34;;;6.92;48.79
706;BME280;21234;48.690;9.016;2023-12-28T03:46:25;96280.34;;;6.79;49.27
706;BME280;21234;48.690;9.016;2023-12-28T03:48:54;96271.03;;;6.75;48.81
706;BME280;21234;48.690;9.016;2023-12-28T03:51:21;96271.53;;;6.84;48.78
706;BME280;21234;48.690;9.016;2023-12-28T03:53:47;96254.19;;;6.91;48.88
706;BME280;21234;48.690;9.016;2023-12-28T03:56:22;96257.66;;;6.98;48.71
706;BME280;21234;48.690;9.016;2023-12-28T03:58:49;96258.03;;;7.02;48.65
706;BME280;21234;48.690;9.016;2023-12-28T04:01:16;96257.88;;;6.97;48.89
706;BME280;21234;48.690;9.016;2023-12-28T04:03:43;96248.56;;;6.93;49.14
706;BME280;21234;48.690;9.016;2023-12-28T04:06:12;96249.25;;;6.88;49.38
706;BME280;21234;48.690;9.016;2023-12-28T04:08:39;96252.56;;;6.90;49.72
706;BME280;21234;48.690;9.016;2023-12-28T04:11:06;96248.88;;;6.85;49.50
706;BME280;21234;48.690;9.016;2023-12-28T04:13:32;96255.81;;;6.81;49.41
706;BME280;21234;48.690;9.016;2023-12-28T04:15:59;96238.78;;;6.80;49.96
706;BME280;21234;48.690;9.016;2023-12-28T04:18:26;96247.00;;;6.85;49.32
706;BME280;21234;48.690;9.016;2023-12-28T04:20:53;96253.69;;;6.83;49.82
706;BME280;21234;48.690;9.016;2023-12-28T04:23:21;96265.22;;;6.90;49.57
706;BME280;21234;48.690;9.016;2023-12-28T04:25:48;96264.72;;;6.99;48.90
706;BME280;21234;48.690;9.016;2023-12-28T04:28:15;96262.53;;;7.08;48.86
706;BME280;21234;48.690;9.016;2023-12-28T04:30:41;96260.78;;;7.14;49.04
706;BME280;21234;48.690;9.016;2023-12-28T04:33:08;96255.53;;;7.30;48.47
706;BME280;21234;48.690;9.016;2023-12-28T04:35:35;96244.28;;;7.33;48.51
706;BME280;21234;48.690;9.016;2023-12-28T04:38:02;96243.94;;;7.41;48.53
706;BME280;21234;48.690;9.016;2023-12-28T04:40:30;96246.06;;;7.51;48.15
706;BME280;21234;48.690;9.016;2023-12-28T04:42:58;96246.38;;;7.73;47.59
706;BME280;21234;48.690;9.016;2023-12-28T04:45:25;96248.38;;;7.89;47.93
706;BME280;21234;48.690;9.016;2023-12-28T04:47:52;96243.44;;;7.86;47.82
706;BME280;21234;48.690;9.016;2023-12-28T04:50:19;96230.38;;;7.83;48.44
706;BME280;21234;48.690;9.016;2023-12-28T04:52:46;96236.16;;;7.98;48.21
706;BME280;21234;48.690;9.016;2023-12-28T04:55:13;96221.91;;;7.91;48.84
706;BME280;21234;48.690;9.016;2023-12-28T04:57:42;96233.31;;;7.93;49.04
706;BME280;21234;48.690;9.016;2023-12-28T05:00:09;96240.63;;;7.93;49.03
706;BME280;21234;48.690;9.016;2023-12-28T05:02:36;96250.97;;;7.96;49.38
706;BME280;21234;48.690;9.016;2023-12-28T05:05:03;96240.84;;;7.91;49.91
706;BME280;21234;48.690;9.016;2023-12-28T05:07:30;96241.09;;;7.90;49.79
706;BME280;21234;48.690;9.016;2023-12-28T05:09:56;96229.66;;;7.88;49.81
706;BME280;21234;48.690;9.016;2023-12-28T05:12:23;96238.25;;;7.85;50.28
706;BME280;21234;48.690;9.016;2023-12-28T05:14:51;96244.84;;;7.89;50.04
706;BME280;21234;48.690;9.016;2023-12-28T05:17:18;96245.81;;;7.94;49.90
706;BME280;21234;48.690;9.016;2023-12-28T05:19:44;96249.69;;;7.98;50.18
706;BME280;21234;48.690;9.016;2023-12-28T05:22:11;96253.00;;;8.00;50.72
706;BME280;21234;48.690;9.016;2023-12-28T05:24:38;96252.75;;;8.02;50.44
706;BME280;21234;48.690;9.016;2023-12-28T05:27:05;96238.75;;;8.05;50.72
706;BME280;21234;48.690;9.016;2023-12-28T05:29:31;96235.22;;;8.04;50.85
706;BME280;21234;48.690;9.016;2023-12-28T05:31:59;96244.88;;;8.12;51.52
706;BME280;21234;48.690;9.016;2023-12-28T05:34:26;96257.09;;;8.15;51.63
706;BME280;21234;48.690;9.016;2023-12-28T05:36:53;96252.41;;;8.22;52.14
706;BME280;21234;48.690;9.016;2023-12-28T05:39:19;96256.75;;;8.23;52.04
706;BME280;21234;48.690;9.016;2023-12-28T05:41:46;96251.00;;;8.19;52.73
706;BME280;21234;48.690;9.016;2023-12-28T05:44:13;96262.50;;;8.15;52.49
706;BME280;21234;48.690;9.016;2023-12-28T05:46:40;96261.38;;;8.11;53.39
706;BME280;21234;48.690;9.016;2023-12-28T05:49:08;96261.59;;;8.09;53.29
706;BME280;21234;48.690;9.016;2023-12-28T05:51:38;96257.72;;;8.05;53.93
706;BME280;21234;48.690;9.016;2023-12-28T05:54:06;96258.31;;;8.07;54.16
706;BME280;21234;48.690;9.016;2023-12-28T05:56:33;96271.72;;;8.02;54.45
706;BME280;21234;48.690;9.016;2023-12-28T05:59:00;96265.94;;;7.98;54.66
706;BME280;21234;48.690;9.016;2023-12-28T06:01:27;96262.50;;;7.91;54.74
706;BME280;21234;48.690;9.016;2023-12-28T06:03:54;96258.84;;;7.86;55.15
706;BME280;21234;48.690;9.016;2023-12-28T06:06:22;96257.31;;;7.90;55.52
706;BME280;21234;48.690;9.016;2023-12-28T06:08:49;96255.91;;;7.87;56.17
706;BME280;21234;48.690;9.016;2023-12-28T06:11:16;96258.47;;;7.82;56.27
706;BME280;21234;48.690;9.016;2023-12-28T06:13:43;96263.66;;;7.84;56.33
706;BME280;21234;48.690;9.016;2023-12-28T06:16:10;96267.09;;;7.79;56.88
706;BME280;21234;48.690;9.016;2023-12-28T06:18:36;96269.22;;;7.77;57.36
706;BME280;21234;48.690;9.016;2023-12-28T06:21:03;96268.16;;;7.78;57.76
706;BME280;21234;48.690;9.016;2023-12-28T06:23:33;96268.03;;;7.85;57.64
706;BME280;21234;48.690;9.016;2023-12-28T06:26:04;96273.09;;;7.93;58.49
706;BME280;21234;48.690;9.016;2023-12-28T06:28:31;96275.56;;;7.94;58.30
706;BME280;21234;48.690;9.016;2023-12-28T06:30:57;96269.94;;;7.96;58.70
706;BME280;21234;48.690;9.016;2023-12-28T06:33:26;96272.88;;;7.94;59.68
706;BME280;21234;48.690;9.016;2023-12-28T06:35:53;96271.44;;;7.92;59.95
706;BME280;21234;48.690;9.016;2023-12-28T06:38:20;96259.47;;;7.99;60.20
706;BME280;21234;48.690;9.016;2023-12-28T06:40:48;96265.47;;;8.01;60.42
706;BME280;21234;48.690;9.016;2023-12-28T06:43:15;96273.13;;;8.04;60.87
706;BME280;21234;48.690;9.016;2023-12-28T06:45:41;96275.25;;;8.02;61.22
706;BME280;21234;48.690;9.016;2023-12-28T06:48:08;96276.75;;;7.98;61.26
706;BME280;21234;48.690;9.016;2023-12-28T06:50:35;96294.19;;;8.02;61.12
706;BME280;21234;48.690;9.016;2023-12-28T06:53:02;96288.53;;;8.04;60.76
706;BME280;21234;48.690;9.016;2023-12-28T06:55:29;96285.50;;;8.12;60.20
706;BME280;21234;48.690;9.016;2023-12-28T06:57:59;96291.72;;;8.13;59.82
706;BME280;21234;48.690;9.016;2023-12-28T07:00:26;96301.03;;;8.17;59.78
706;BME280;21234;48.690;9.016;2023-12-28T07:02:53;96288.31;;;8.17;59.44
706;BME280;21234;48.690;9.016;2023-12-28T07:05:25;96288.66;;;8.21;59.17
706;BME280;21234;48.690;9.016;2023-12-28T07:07:55;96298.91;;;8.19;59.51
706;BME280;21234;48.690;9.016;2023-12-28T07:10:22;96302.31;;;8.26;58.62
706;BME280;21234;48.690;9.016;2023-12-28T07:12:48;96309.41;;;8.27;58.47
706;BME280;21234;48.690;9.016;2023-12-28T07:15:17;96306.44;;;8.28;58.65
706;BME280;21234;48.690;9.016;2023-12-28T07:17:43;96306.69;;;8.27;58.88
706;BME280;21234;48.690;9.016;2023-12-28T07:20:10;96301.88;;;8.29;58.01
706;BME280;21234;48.690;9.016;2023-12-28T07:22:37;96302.25;;;8.32;57.93
706;BME280;21234;48.690;9.016;2023-12-28T07:25:05;96304.03;;;8.38;57.98
706;BME280;21234;48.690;9.016;2023-12-28T07:27:32;96308.38;;;8.39;58.50
706;BME280;21234;48.690;9.016;2023-12-28T07:30:00;96312.75;;;8.40;58.52
706;BME280;21234;48.690;9.016;2023-12-28T07:32:28;96304.03;;;8.38;58.67
706;BME280;21234;48.690;9.016;2023-12-28T07:34:56;96305.78;;;8.45;57.54
706;BME280;21234;48.690;9.016;2023-12-28T07:37:24;96311.06;;;8.51;58.00
706;BME280;21234;48.690;9.016;2023-12-28T07:39:51;96310.72;;;8.48;58.03
706;BME280;21234;48.690;9.016;2023-12-28T07:42:17;96309.19;;;8.52;58.18
706;BME280;21234;48.690;9.016;2023-12-28T07:44:46;96311.19;;;8.56;58.43
706;BME280;21234;48.690;9.016;2023-12-28T07:47:16;96316.13;;;8.59;58.67
706;BME280;21234;48.690;9.016;2023-12-28T07:49:46;96325.44;;;8.63;58.70
706;BME280;21234;48.690;9.016;2023-12-28T07:52:18;96311.19;;;8.68;58.56
706;BME280;21234;48.690;9.016;2023-12-28T07:54:46;96328.28;;;8.68;58.94
706;BME280;21234;48.690;9.016;2023-12-28T07:57:13;96329.69;;;8.71;58.48
706;BME280;21234;48.690;9.016;2023-12-28T07:59:39;96327.22;;;8.69;58.51
706;BME280;21234;48.690;9.016;2023-12-28T08:02:06;96321.81;;;8.69;58.99
706;BME280;21234;48.690;9.016;2023-12-28T08:04:33;96322.97;;;8.73;58.53
706;BME280;21234;48.690;9.016;2023-12-28T08:07:02;96325.94;;;8.72;58.86
706;BME280;21234;48.690;9.016;2023-12-28T08:09:30;96320.34;;;8.79;58.83
706;BME280;21234;48.690;9.016;2023-12-28T08:11:58;96330.13;;;8.80;59.46
706;BME280;21234;48.690;9.016;2023-12-28T08:14:29;96321.41;;;8.77;59.82
706;BME280;21234;48.690;9.016;2023-12-28T08:16:57;96338.28;;;8.80;59.60
706;BME280;21234;48.690;9.016;2023-12-28T08:19:25;96338.84;;;8.82;59.09
706;BME280;21234;48.690;9.016;2023-12-28T08:21:52;96353.47;;;8.81;59.43
706;BME280;21234;48.690;9.016;2023-12-28T08:24:21;96341.81;;;8.80;59.40
706;BME280;21234;48.690;9.016;2023-12-28T08:26:49;96348.88;;;8.81;59.54
706;BME280;21234;48.690;9.016;2023-12-28T08:29:16;96348.28;;;8.79;59.87
706;BME280;21234;48.690;9.016;2023-12-28T08:31:43;96352.41;;;8.82;59.85
706;BME280;21234;48.690;9.016;2023-12-28T08:34:10;96350.28;;;8.84;60.46
706;BME280;21234;48.690;9.016;2023-12-28T08:36:37;96356.53;;;8.84;60.70
706;BME280;21234;48.690;9.016;2023-12-28T08:39:03;96354.28;;;8.81;61.21
706;BME280;21234;48.690;9.016;2023-12-28T08:41:31;96357.38;;;8.85;61.30
706;BME280;21234;48.690;9.016;2023-12-28T08:43:58;96363.25;;;8.82;61.71
706;BME280;21234;48.690;9.016;2023-12-28T08:46:26;96364.31;;;8.81;62.58
706;BME280;21234;48.690;9.016;2023-12-28T08:48:54;96362.91;;;8.78;63.38
706;BME280;21234;48.690;9.016;2023-12-28T08:51:21;96360.69;;;8.75;63.55
706;BME280;21234;48.690;9.016;2023-12-28T08:53:48;96358.81;;;8.75;62.74
706;BME280;21234;48.690;9.016;2023-12-28T08:56:20;96359.88;;;8.74;63.52
706;BME280;21234;48.690;9.016;2023-12-28T08:58:48;96366.19;;;8.80;63.68
706;BME280;21234;48.690;9.016;2023-12-28T09:01:16;96356.19;;;8.81;64.23
706;BME280;21234;48.690;9.016;2023-12-28T09:03:43;96351.81;;;8.80;63.75
706;BME280;21234;48.690;9.016;2023-12-28T09:06:10;96352.31;;;8.77;64.84
706;BME280;21234;48.690;9.016;2023-12-28T09:08:37;96348.53;;;8.77;64.73
706;BME280;21234;48.690;9.016;2023-12-28T09:11:03;96337.44;;;8.79;64.93
706;BME280;21234;48.690;9.016;2023-12-28T09:13:30;96352.06;;;8.78;65.62
706;BME280;21234;48.690;9.016;2023-12-28T09:15:58;96349.63;;;8.77;66.05
706;BME280;21234;48.690;9.016;2023-12-28T09:18:25;96353.94;;;8.77;66.37
706;BME280;21234;48.690;9.016;2023-12-28T09:20:51;96362.06;;;8.77;65.87
706;BME280;21234;48.690;9.016;2023-12-28T09:23:18;96355.28;;;8.75;65.59
706;BME280;21234;48.690;9.016;2023-12-28T09:25:45;96354.44;;;8.74;63.88
706;BME280;21234;48.690;9.016;2023-12-28T09:28:12;96371.84;;;8.79;64.06
706;BME280;21234;48.690;9.016;2023-12-28T09:30:38;96377.78;;;8.75;62.61
706;BME280;21234;48.690;9.016;2023-12-28T09:33:06;96371.84;;;8.79;63.84
706;BME280;21234;48.690;9.016;2023-12-28T09:35:33;96368.09;;;8.80;63.51
706;BME280;21234;48.690;9.016;2023-12-28T09:38:01;96373.50;;;8.80;64.35
706;BME280;21234;48.690;9.016;2023-12-28T09:40:28;96381.88;;;8.78;65.50
706;BME280;21234;48.690;9.016;2023-12-28T09:43:01;96378.94;;;8.80;65.98
706;BME280;21234;48.690;9.016;2023-12-28T09:45:30;96386.81;;;8.81;67.14
706;BME280;21234;48.690;9.016;2023-12-28T09:47:57;96390.38;;;8.82;66.50
706;BME280;21234;48.690;9.016;2023-12-28T09:50:25;96384.94;;;8.82;66.33
706;BME280;21234;48.690;9.016;2023-12-28T09:52:52;96389.78;;;8.80;65.63
706;BME280;21234;48.690;9.016;2023-12-28T09:55:20;96397.66;;;8.81;65.19
706;BME280;21234;48.690;9.016;2023-12-28T09:57:47;96400.16;;;8.83;64.55
706;BME280;21234;48.690;9.016;2023-12-28T10:00:14;96396.84;;;8.81;62.76
706;BME280;21234;48.690;9.016;2023-12-28T10:02:44;96396.13;;;8.85;62.61
706;BME280;21234;48.690;9.016;2023-12-28T10:05:12;96404.03;;;8.87;62.89
706;BME280;21234;48.690;9.016;2023-12-28T10:07:41;96396.13;;;8.85;62.02
706;BME280;21234;48.690;9.016;2023-12-28T10:10:08;96387.78;;;8.87;62.67
706;BME280;21234;48.690;9.016;2023-12-28T10:12:35;96399.91;;;8.84;62.47
706;BME280;21234;48.690;9.016;2023-12-28T10:15:03;96393.66;;;8.84;63.13
706;BME280;21234;48.690;9.016;2023-12-28T10:17:33;96396.72;;;8.87;63.48
706;BME280;21234;48.690;9.016;2023-12-28T10:20:01;96390.25;;;8.88;63.44
706;BME280;21234;48.690;9.016;2023-12-28T10:22:30;96388.72;;;8.92;63.95
706;BME280;21234;48.690;9.016;2023-12-28T10:24:59;96383.88;;;8.94;63.84
706;BME280;21234;48.690;9.016;2023-12-28T10:27:26;96386.34;;;8.96;64.68
706;BME280;21234;48.690;9.016;2023-12-28T10:29:53;96378.22;;;8.96;65.88
706;BME280;21234;48.690;9.016;2023-12-28T10:32:20;96378.34;;;9.01;66.53
706;BME280;21234;48.690;9.016;2023-12-28T10:34:48;96373.50;;;9.03;67.16
706;BME280;21234;48.690;9.016;2023-12-28T10:37:16;96375.16;;;9.04;69.04
706;BME280;21234;48.690;9.016;2023-12-28T10:39:47;96371.97;;;9.07;70.50
706;BME280;21234;48.690;9.016;2023-12-28T10:42:20;96367.97;;;9.09;70.91
706;BME280;21234;48.690;9.016;2023-12-28T10:44:52;96365.34;;;9.15;71.69
706;BME280;21234;48.690;9.016;2023-12-28T10:47:24;96355.19;;;9.22;72.06
706;BME280;21234;48.690;9.016;2023-12-28T10:49:53;96344.56;;;9.20;71.73
706;BME280;21234;48.690;9.016;2023-12-28T10:52:26;96346.81;;;9.23;71.82
706;BME280;21234;48.690;9.016;2023-12-28T10:54:59;96338.44;;;9.25;71.94
706;BME280;21234;48.690;9.016;2023-12-28T10:57:37;96352.34;;;9.28;72.26
706;BME280;21234;48.690;9.016;2023-12-28T11:00:09;96342.44;;;9.22;72.85
706;BME280;21234;48.690;9.016;2023-12-28T11:02:38;96343.84;;;9.25;73.16
706;BME280;21234;48.690;9.016;2023-12-28T11:05:07;96333.00;;;9.25;72.95
706;BME280;21234;48.690;9.016;2023-12-28T11:07:35;96330.06;;;9.26;73.37
706;BME280;21234;48.690;9.016;2023-12-28T11:10:05;96334.66;;;9.26;73.73
706;BME280;21234;48.690;9.016;2023-12-28T11:12:34;96329.81;;;9.28;73.56
706;BME280;21234;48.690;9.016;2023-12-28T11:15:02;96339.84;;;9.27;73.61
706;BME280;21234;48.690;9.016;2023-12-28T11:17:30;96327.94;;;9.28;73.26
706;BME280;21234;48.690;9.016;2023-12-28T11:19:58;96325.22;;;9.28;73.29
706;BME280;21234;48.690;9.016;2023-12-28T11:22:26;96326.28;;;9.27;73.37
706;BME280;21234;48.690;9.016;2023-12-28T11:24:53;96327.94;;;9.28;73.62
706;BME280;21234;48.690;9.016;2023-12-28T11:27:20;96320.63;;;9.29;73.46
706;BME280;21234;48.690;9.016;2023-12-28T11:29:49;96326.88;;;9.29;73.57
706;BME280;21234;48.690;9.016;2023-12-28T11:32:19;96325.69;;;9.25;73.53
706;BME280;21234;48.690;9.016;2023-12-28T11:34:56;96316.00;;;9.29;74.23
706;BME280;21234;48.690;9.016;2023-12-28T11:37:23;96310.34;;;9.31;73.70
706;BME280;21234;48.690;9.016;2023-12-28T11:39:52;96307.41;;;9.32;73.69
706;BME280;21234;48.690;9.016;2023-12-28T11:42:21;96309.53;;;9.30;74.39
706;BME280;21234;48.690;9.016;2023-12-28T11:44:54;96312.59;;;9.34;74.29
706;BME280;21234;48.690;9.016;2023-12-28T11:47:22;96313.41;;;9.34;74.29
706;BME280;21234;48.690;9.016;2023-12-28T11:49:49;96308.66;;;9.41;74.66
706;BME280;21234;48.690;9.016;2023-12-28T11:52:25;96313.81;;;9.43;74.27
706;BME280;21234;48.690;9.016;2023-12-28T11:54:52;96304.72;;;9.49;74.38
706;BME280;21234;48.690;9.016;2023-12-28T11:57:19;96306.13;;;9.52;74.35
706;BME280;21234;48.690;9.016;2023-12-28T11:59:48;96306.94;;;9.52;74.11
706;BME280;21234;48.690;9.016;2023-12-28T12:02:17;96306.22;;;9.57;74.18
706;BME280;21234;48.690;9.016;2023-12-28T12:04:44;96306.72;;;9.54;73.95
706;BME280;21234;48.690;9.016;2023-12-28T12:07:11;96300.69;;;9.52;74.36
706;BME280;21234;48.690;9.016;2023-12-28T12:09:38;96299.63;;;9.53;73.88
706;BME280;21234;48.690;9.016;2023-12-28T12:12:06;96297.75;;;9.53;74.19
706;BME280;21234;48.690;9.016;2023-12-28T12:14:34;96298.91;;;9.57;74.91
706;BME280;21234;48.690;9.016;2023-12-28T12:17:01;96298.66;;;9.59;75.03
706;BME280;21234;48.690;9.016;2023-12-28T12:19:30;96291.09;;;9.61;75.53
706;BME280;21234;48.690;9.016;2023-12-28T12:21:57;96292.50;;;9.63;75.25
706;BME280;21234;48.690;9.016;2023-12-28T12:24:24;96286.25;;;9.63;74.74
706;BME280;21234;48.690;9.016;2023-12-28T12:26:52;96279.78;;;9.64;75.19
706;BME280;21234;48.690;9.016;2023-12-28T12:29:19;96288.97;;;9.63;75.05
706;BME280;21234;48.690;9.016;2023-12-28T12:31:47;96274.59;;;9.62;74.82
706;BME280;21234;48.690;9.016;2023-12-28T12:34:15;96273.03;;;9.66;75.58
706;BME280;21234;48.690;9.016;2023-12-28T12:36:44;96275.25;;;9.69;75.83
706;BME280;21234;48.690;9.016;2023-12-28T12:39:11;96272.22;;;9.66;75.84
706;BME280;21234;48.690;9.016;2023-12-28T12:41:38;96276.22;;;9.63;76.33
706;BME280;21234;48.690;9.016;2023-12-28T12:44:05;96269.97;;;9.63;76.32
706;BME280;21234;48.690;9.016;2023-12-28T12:46:31;96276.00;;;9.65;76.94
706;BME280;21234;48.690;9.016;2023-12-28T12:48:59;96276.72;;;9.60;77.42
706;BME280;21234;48.690;9.016;2023-12-28T12:51:27;96281.91;;;9.62;78.29
706;BME280;21234;48.690;9.016;2023-12-28T12:53:57;96279.19;;;9.62;78.50
706;BME280;21234;48.690;9.016;2023-12-28T12:56:25;96283.44;;;9.58;78.45
706;BME280;21234;48.690;9.016;2023-12-28T12:58:52;96282.88;;;9.56;79.39
706;BME280;21234;48.690;9.016;2023-12-28T13:01:19;96274.63;;;9.51;78.95
706;BME280;21234;48.690;9.016;2023-12-28T13:03:46;96262.63;;;9.47;79.60
706;BME280;21234;48.690;9.016;2023-12-28T13:06:13;96275.00;;;9.42;79.65
706;BME280;21234;48.690;9.016;2023-12-28T13:08:39;96276.13;;;9.41;80.39
706;BME280;21234;48.690;9.016;2023-12-28T13:11:08;96280.44;;;9.42;81.31
706;BME280;21234;48.690;9.016;2023-12-28T13:13:34;96285.34;;;9.29;83.29
706;BME280;21234;48.690;9.016;2023-12-28T13:16:01;96281.00;;;9.28;84.76
706;BME280;21234;48.690;9.016;2023-12-28T13:18:28;96284.66;;;9.22;85.63
706;BME280;21234;48.690;9.016;2023-12-28T13:20:55;96286.56;;;9.21;86.41
706;BME280;21234;48.690;9.016;2023-12-28T13:23:22;96289.75;;;9.18;87.16
706;BME280;21234;48.690;9.016;2023-12-28T13:25:49;96295.88;;;9.14;87.80
706;BME280;21234;48.690;9.016;2023-12-28T13:28:17;96289.63;;;9.13;88.88
706;BME280;21234;48.690;9.016;2023-12-28T13:30:44;96293.16;;;9.14;89.23
706;BME280;21234;48.690;9.016;2023-12-28T13:33:11;96298.94;;;9.17;89.45
706;BME280;21234;48.690;9.016;2023-12-28T13:35:38;96296.94;;;9.13;89.83